Time;durP1;ratioP1;P1;durP2;ratioP2;P2;SDS_P1;SDS_P2;PMS_P1;PMS_P2;Temp;Humidity;BMP_temperature;BMP_pressure;BME280_temperature;BME280_humidity;BME280_pressure;Samples;Min_cycle;Max_cycle;Signal;HPM_P1;HPM_P2
2021/06/08 00:00:09;;;;;;;8.95;6.43;;;;;;;;;;347430;28;1264;-64
2021/06/08 00:00:22;;;;;;;8.07;6.18;;;;;;;;;;347659;28;1220;-64
2021/06/08 00:00:35;;;;;;;8.07;6.22;;;;;;;;;;347635;28;1161;-66
2021/06/08 00:00:47;;;;;;;9.70;6.32;;;;;;;;;;346895;28;2149;-66
2021/06/08 00:00:59;;;;;;;9.82;6.78;;;;;;;;;;347204;28;1105;-64
2021/06/08 00:01:11;;;;;;;10.23;7.10;;;;;;;;;;347007;28;1740;-66
2021/06/08 00:01:24;;;;;;;10.88;7.03;;;;;;;;;;346371;28;1172;-64
2021/06/08 00:01:36;;;;;;;9.35;6.82;;;;;;;;;;346260;28;1217;-64
2021/06/08 00:01:49;;;;;;;8.38;6.85;;;;;;;;;;347282;28;1092;-65
2021/06/08 00:02:01;;;;;;;8.60;7.03;;;;;;;;;;348441;28;1711;-67
2021/06/08 00:02:13;;;;;;;9.68;7.57;;;;;;;;;;347990;28;1936;-66
2021/06/08 00:02:25;;;;;;;9.20;7.45;;;;;;;;;;347910;28;1120;-64
2021/06/08 00:02:37;;;;;;;8.77;7.45;;;;;;;;;;347875;28;1387;-65
2021/06/08 00:02:50;;;;;;;8.13;7.10;;;;;;;;;;347804;28;1082;-68
2021/06/08 00:03:04;;;;;;;8.30;7.40;;;;;;;;;;347921;28;1296;-64
2021/06/08 00:03:16;;;;;;;8.52;7.40;;;;;;;;;;347993;28;1123;-65
2021/06/08 00:03:28;;;;;;;8.38;7.45;;;;;;;;;;346715;28;1127;-64
2021/06/08 00:03:40;;;;;;;8.70;7.47;;;;;;;;;;346516;28;1033;-65
2021/06/08 00:03:53;;;;;;;8.48;7.40;;;;;;;;;;346717;28;1093;-66
2021/06/08 00:04:05;;;;;;;8.68;7.47;;;;;;;;;;347888;28;1102;-64
2021/06/08 00:04:18;;;;;;;8.68;7.43;;;;;;;;;;347900;28;1043;-64
2021/06/08 00:04:30;;;;;;;9.27;7.38;;;;;;;;;;346742;28;1179;-65
2021/06/08 00:04:42;;;;;;;9.77;7.55;;;;;;;;;;346429;28;1081;-65
2021/06/08 00:04:54;;;;;;;10.25;7.68;;;;;;;;;;346312;28;1065;-64
2021/06/08 00:05:06;;;;;;;10.38;7.85;;;;;;;;;;346317;28;1290;-64
2021/06/08 00:05:19;;;;;;;9.93;8.25;;;;;;;;;;347786;28;1136;-65
2021/06/08 00:05:31;;;;;;;9.73;8.27;;;;;;;;;;347019;28;2269;-64
2021/06/08 00:05:44;;;;;;;9.38;8.05;;;;;;;;;;347739;28;954;-64
2021/06/08 00:05:56;;;;;;;8.57;7.63;;;;;;;;;;347681;28;1120;-65
2021/06/08 00:06:08;;;;;;;8.98;7.65;;;;;;;;;;347812;28;1136;-65
2021/06/08 00:06:20;;;;;;;10.10;7.88;;;;;;;;;;347495;28;1906;-64
2021/06/08 00:06:32;;;;;;;12.20;8.32;;;;;;;;;;348134;28;1069;-64
2021/06/08 00:06:45;;;;;;;11.80;8.63;;;;;;;;;;347652;28;1098;-64
2021/06/08 00:06:57;;;;;;;10.98;8.55;;;;;;;;;;348068;28;1375;-64
2021/06/08 00:07:09;;;;;;;10.35;8.50;;;;;;;;;;347938;28;1661;-64
2021/06/08 00:07:21;;;;;;;10.70;8.50;;;;;;;;;;350625;28;1607;-66
2021/06/08 00:07:33;;;;;;;11.02;8.25;;;;;;;;;;350510;28;1144;-64
2021/06/08 00:07:45;;;;;;;11.30;8.32;;;;;;;;;;349758;28;1078;-64
2021/06/08 00:08:00;;;;;;;12.10;8.55;;;;;;;;;;349218;28;1165;-65
2021/06/08 00:08:12;;;;;;;12.00;8.63;;;;;;;;;;348601;28;16764;-64
2021/06/08 00:08:25;;;;;;;12.27;8.88;;;;;;;;;;349110;28;1233;-64
2021/06/08 00:08:37;;;;;;;12.00;8.80;;;;;;;;;;349815;28;1080;-65
2021/06/08 00:08:49;;;;;;;11.85;8.80;;;;;;;;;;350418;28;1141;-65
2021/06/08 00:09:02;;;;;;;12.77;9.10;;;;;;;;;;350578;28;1286;-65
2021/06/08 00:09:14;;;;;;;12.82;9.38;;;;;;;;;;350523;28;1153;-64
2021/06/08 00:09:26;;;;;;;12.38;9.10;;;;;;;;;;348275;28;1017;-64
2021/06/08 00:09:38;;;;;;;12.52;8.68;;;;;;;;;;347846;28;1088;-65
2021/06/08 00:09:51;;;;;;;12.82;8.65;;;;;;;;;;348037;28;1079;-65
2021/06/08 00:10:04;;;;;;;12.93;8.80;;;;;;;;;;347961;28;1161;-64
2021/06/08 00:10:16;;;;;;;12.80;8.82;;;;;;;;;;348021;28;1098;-65
2021/06/08 00:10:29;;;;;;;12.25;9.10;;;;;;;;;;347416;28;2032;-65
2021/06/08 00:10:41;;;;;;;12.40;9.05;;;;;;;;;;348591;28;1155;-65
2021/06/08 00:10:53;;;;;;;13.55;8.93;;;;;;;;;;349076;28;1010;-64
2021/06/08 00:11:05;;;;;;;13.38;8.75;;;;;;;;;;348044;28;1098;-64
2021/06/08 00:11:20;;;;;;;11.80;8.82;;;;;;;;;;348028;28;1097;-65
2021/06/08 00:11:32;;;;;;;11.00;9.07;;;;;;;;;;346305;28;39819;-66
2021/06/08 00:11:44;;;;;;;12.48;9.30;;;;;;;;;;347721;28;1105;-64
2021/06/08 00:11:56;;;;;;;12.82;9.25;;;;;;;;;;347702;28;1176;-65
2021/06/08 00:12:09;;;;;;;13.05;8.95;;;;;;;;;;347746;28;1153;-64
2021/06/08 00:12:21;;;;;;;12.15;8.80;;;;;;;;;;347551;28;1372;-64
2021/06/08 00:12:33;;;;;;;11.82;9.05;;;;;;;;;;346609;28;1685;-65
2021/06/08 00:12:46;;;;;;;12.10;9.02;;;;;;;;;;348001;28;1617;-64
2021/06/08 00:12:58;;;;;;;12.35;8.77;;;;;;;;;;349046;28;1123;-65
2021/06/08 00:13:10;;;;;;;12.63;8.95;;;;;;;;;;347796;28;1977;-67
2021/06/08 00:13:22;;;;;;;13.30;9.18;;;;;;;;;;346299;28;1094;-65
2021/06/08 00:13:35;;;;;;;12.35;9.30;;;;;;;;;;346748;28;1106;-64
2021/06/08 00:13:48;;;;;;;13.43;9.65;;;;;;;;;;346308;28;1133;-65
2021/06/08 00:14:00;;;;;;;14.45;9.50;;;;;;;;;;346437;28;1106;-64
2021/06/08 00:14:12;;;;;;;12.60;9.18;;;;;;;;;;346647;28;1922;-64
2021/06/08 00:14:24;;;;;;;11.63;8.75;;;;;;;;;;346740;28;1419;-65
2021/06/08 00:14:36;;;;;;;12.15;9.05;;;;;;;;;;346614;28;1054;-65
2021/06/08 00:14:48;;;;;;;14.25;9.68;;;;;;;;;;346450;28;1016;-65
2021/06/08 00:15:00;;;;;;;14.40;9.35;;;;;;;;;;349024;28;1118;-65
2021/06/08 00:15:13;;;;;;;13.60;9.27;;;;;;;;;;348938;28;1238;-64
2021/06/08 00:15:26;;;;;;;13.45;9.30;;;;;;;;;;349102;28;1184;-64
2021/06/08 00:15:38;;;;;;;13.57;9.15;;;;;;;;;;348947;28;1069;-65
2021/06/08 00:15:50;;;;;;;12.57;8.77;;;;;;;;;;349311;28;1330;-67
2021/06/08 00:16:02;;;;;;;11.98;8.98;;;;;;;;;;350456;28;1084;-65
2021/06/08 00:16:15;;;;;;;10.98;8.70;;;;;;;;;;350252;28;1199;-66
2021/06/08 00:16:27;;;;;;;10.20;8.60;;;;;;;;;;349768;28;1853;-64
2021/06/08 00:16:39;;;;;;;10.25;8.40;;;;;;;;;;349086;28;1201;-64
2021/06/08 00:16:52;;;;;;;11.65;8.43;;;;;;;;;;349102;28;1184;-64
2021/06/08 00:17:04;;;;;;;12.10;8.77;;;;;;;;;;347154;28;1144;-69
2021/06/08 00:17:16;;;;;;;12.54;9.18;;;;;;;;;;346737;28;1160;-64
2021/06/08 00:17:29;;;;;;;11.95;9.25;;;;;;;;;;347063;28;1102;-67
2021/06/08 00:17:41;;;;;;;11.63;8.70;;;;;;;;;;347777;28;1090;-67
2021/06/08 00:17:53;;;;;;;12.23;8.77;;;;;;;;;;347864;28;1382;-64
2021/06/08 00:18:05;;;;;;;11.73;8.73;;;;;;;;;;347904;28;1133;-64
2021/06/08 00:18:17;;;;;;;11.55;8.88;;;;;;;;;;348038;28;1114;-64
2021/06/08 00:18:29;;;;;;;11.60;8.85;;;;;;;;;;347919;28;1098;-64
2021/06/08 00:18:41;;;;;;;11.65;8.98;;;;;;;;;;346585;28;1098;-65
2021/06/08 00:18:53;;;;;;;11.50;8.77;;;;;;;;;;346678;28;1103;-64
2021/06/08 00:19:05;;;;;;;11.57;8.60;;;;;;;;;;346394;28;2048;-64
2021/06/08 00:19:17;;;;;;;13.00;8.40;;;;;;;;;;347169;28;1191;-64
2021/06/08 00:19:30;;;;;;;13.00;8.77;;;;;;;;;;347850;28;1086;-64
2021/06/08 00:19:42;;;;;;;12.27;8.70;;;;;;;;;;347706;28;1194;-64
2021/06/08 00:19:54;;;;;;;12.38;8.48;;;;;;;;;;346387;28;1001;-65
2021/06/08 00:20:07;;;;;;;12.13;8.52;;;;;;;;;;346639;28;1020;-66
2021/06/08 00:20:19;;;;;;;12.32;8.75;;;;;;;;;;347808;28;1171;-64
2021/06/08 00:20:31;;;;;;;13.55;8.90;;;;;;;;;;347761;28;1111;-65
2021/06/08 00:20:43;;;;;;;12.40;8.82;;;;;;;;;;347610;28;1077;-65
2021/06/08 00:20:55;;;;;;;12.02;8.73;;;;;;;;;;347699;28;1275;-64
2021/06/08 00:21:07;;;;;;;11.85;8.85;;;;;;;;;;347616;28;1104;-65
2021/06/08 00:21:19;;;;;;;12.77;9.13;;;;;;;;;;346474;28;1098;-65
2021/06/08 00:21:31;;;;;;;14.32;9.23;;;;;;;;;;346251;28;1472;-64
2021/06/08 00:21:43;;;;;;;14.98;9.30;;;;;;;;;;346294;28;2021;-64
2021/06/08 00:21:56;;;;;;;13.35;8.98;;;;;;;;;;347186;28;1007;-65
2021/06/08 00:22:08;;;;;;;11.68;8.52;;;;;;;;;;346571;28;1613;-64
2021/06/08 00:22:20;;;;;;;10.65;8.38;;;;;;;;;;346629;28;1137;-66
2021/06/08 00:22:32;;;;;;;12.13;8.60;;;;;;;;;;346511;28;1033;-64
2021/06/08 00:22:44;;;;;;;14.57;9.23;;;;;;;;;;346305;28;1205;-64
2021/06/08 00:22:57;;;;;;;14.63;9.32;;;;;;;;;;346640;28;1183;-65
2021/06/08 00:23:09;;;;;;;11.82;8.90;;;;;;;;;;346825;28;1141;-65
2021/06/08 00:23:21;;;;;;;12.32;9.02;;;;;;;;;;350055;28;1660;-64
2021/06/08 00:23:33;;;;;;;11.68;9.02;;;;;;;;;;348855;28;1106;-64
2021/06/08 00:23:46;;;;;;;11.02;9.00;;;;;;;;;;349076;28;1066;-64
2021/06/08 00:23:58;;;;;;;11.65;8.68;;;;;;;;;;350299;28;1230;-65
2021/06/08 00:24:10;;;;;;;10.85;8.43;;;;;;;;;;350578;28;1026;-64
2021/06/08 00:24:22;;;;;;;10.85;8.75;;;;;;;;;;350371;28;1254;-67
2021/06/08 00:24:34;;;;;;;12.63;9.20;;;;;;;;;;350373;28;1184;-64
2021/06/08 00:24:46;;;;;;;13.38;8.90;;;;;;;;;;350487;28;1119;-65
2021/06/08 00:24:58;;;;;;;12.35;8.75;;;;;;;;;;350336;28;1082;-64
2021/06/08 00:25:11;;;;;;;10.23;8.63;;;;;;;;;;350478;28;1083;-64
2021/06/08 00:25:23;;;;;;;10.95;8.48;;;;;;;;;;349083;28;1184;-65
2021/06/08 00:25:35;;;;;;;11.82;8.52;;;;;;;;;;347943;28;1077;-64
2021/06/08 00:25:47;;;;;;;10.55;8.35;;;;;;;;;;347809;28;1211;-64
2021/06/08 00:25:59;;;;;;;10.60;8.52;;;;;;;;;;347956;28;1227;-65
2021/06/08 00:26:12;;;;;;;11.80;8.93;;;;;;;;;;347871;28;1102;-65
2021/06/08 00:26:24;;;;;;;14.27;8.90;;;;;;;;;;347303;28;2067;-64
2021/06/08 00:26:36;;;;;;;13.95;8.68;;;;;;;;;;346681;28;1172;-65
2021/06/08 00:26:48;;;;;;;12.23;8.40;;;;;;;;;;347868;28;1114;-64
2021/06/08 00:27:01;;;;;;;10.77;8.40;;;;;;;;;;348055;28;1177;-67
2021/06/08 00:27:13;;;;;;;11.43;8.63;;;;;;;;;;350350;28;1238;-65
2021/06/08 00:27:25;;;;;;;11.90;8.75;;;;;;;;;;349966;28;1184;-64
2021/06/08 00:27:37;;;;;;;12.82;8.75;;;;;;;;;;349131;28;1189;-64
2021/06/08 00:27:50;;;;;;;13.02;8.70;;;;;;;;;;350051;28;1261;-64
2021/06/08 00:28:04;;;;;;;12.40;8.82;;;;;;;;;;350508;28;1005;-65
2021/06/08 00:28:16;;;;;;;12.32;8.65;;;;;;;;;;348408;28;16624;-64
2021/06/08 00:28:28;;;;;;;12.27;8.40;;;;;;;;;;349097;28;1164;-65
2021/06/08 00:28:40;;;;;;;10.77;8.27;;;;;;;;;;348896;28;1188;-64
2021/06/08 00:28:52;;;;;;;11.68;8.48;;;;;;;;;;349091;28;1076;-64
2021/06/08 00:29:04;;;;;;;13.07;8.85;;;;;;;;;;348924;28;1165;-65
2021/06/08 00:29:17;;;;;;;12.50;9.10;;;;;;;;;;347859;28;1142;-65
2021/06/08 00:29:29;;;;;;;10.93;8.80;;;;;;;;;;347905;28;1105;-65
2021/06/08 00:29:41;;;;;;;10.73;8.48;;;;;;;;;;347937;28;1131;-64
2021/06/08 00:29:53;;;;;;;11.77;8.50;;;;;;;;;;347662;28;1216;-67
2021/06/08 00:30:05;;;;;;;11.18;8.18;;;;;;;;;;347754;28;994;-64
2021/06/08 00:30:18;;;;;;;10.20;7.97;;;;;;;;;;347054;28;1114;-65
2021/06/08 00:30:30;;;;;;;10.20;7.95;;;;;;;;;;346825;28;2059;-65
2021/06/08 00:30:42;;;;;;;10.57;8.10;;;;;;;;;;347231;28;1094;-64
2021/06/08 00:30:54;;;;;;;10.95;8.50;;;;;;;;;;350490;28;1102;-65
2021/06/08 00:31:07;;;;;;;11.55;8.57;;;;;;;;;;349556;28;1254;-64
2021/06/08 00:31:19;;;;;;;10.55;8.35;;;;;;;;;;350418;28;1204;-64
2021/06/08 00:31:32;;;;;;;11.23;8.38;;;;;;;;;;349504;28;1920;-64
2021/06/08 00:31:44;;;;;;;11.73;8.57;;;;;;;;;;348952;28;1163;-67
2021/06/08 00:31:56;;;;;;;12.80;8.40;;;;;;;;;;348945;28;1063;-66
2021/06/08 00:32:09;;;;;;;12.13;8.45;;;;;;;;;;348997;28;1062;-64
2021/06/08 00:32:21;;;;;;;10.15;8.10;;;;;;;;;;349008;28;1155;-64
2021/06/08 00:32:34;;;;;;;9.93;8.18;;;;;;;;;;349048;28;1422;-65
2021/06/08 00:32:46;;;;;;;9.65;8.20;;;;;;;;;;349086;28;1245;-64
2021/06/08 00:32:59;;;;;;;10.60;8.77;;;;;;;;;;348021;28;1078;-65
2021/06/08 00:33:11;;;;;;;11.15;8.98;;;;;;;;;;347019;28;2101;-65
2021/06/08 00:33:23;;;;;;;10.13;8.98;;;;;;;;;;347115;28;1077;-65
2021/06/08 00:33:35;;;;;;;11.02;8.65;;;;;;;;;;347702;28;1101;-64
2021/06/08 00:33:47;;;;;;;12.73;8.40;;;;;;;;;;346400;28;1201;-65
2021/06/08 00:33:59;;;;;;;12.50;8.60;;;;;;;;;;346971;28;1790;-66
2021/06/08 00:34:12;;;;;;;12.23;8.85;;;;;;;;;;344534;28;1751;-64
2021/06/08 00:34:24;;;;;;;11.85;9.38;;;;;;;;;;344985;28;1190;-64
2021/06/08 00:34:36;;;;;;;11.70;9.43;;;;;;;;;;342357;28;1066;-69
2021/06/08 00:34:48;;;;;;;12.00;9.27;;;;;;;;;;341984;28;1078;-64
2021/06/08 00:35:00;;;;;;;11.38;8.73;;;;;;;;;;342013;28;1250;-65
2021/06/08 00:35:12;;;;;;;10.65;8.70;;;;;;;;;;343999;28;1177;-64
2021/06/08 00:35:27;;;;;;;11.75;9.15;;;;;;;;;;344969;28;1094;-68
2021/06/08 00:35:39;;;;;;;13.90;9.63;;;;;;;;;;344278;28;17100;-65
2021/06/08 00:35:51;;;;;;;13.52;9.38;;;;;;;;;;344825;28;1926;-65
2021/06/08 00:36:03;;;;;;;11.80;9.14;;;;;;;;;;344799;28;1071;-64
2021/06/08 00:36:16;;;;;;;10.32;8.57;;;;;;;;;;344802;28;1342;-65
2021/06/08 00:36:28;;;;;;;11.25;8.65;;;;;;;;;;344100;28;1852;-65
2021/06/08 00:36:40;;;;;;;11.55;8.77;;;;;;;;;;343672;28;1030;-64
2021/06/08 00:36:52;;;;;;;11.65;9.00;;;;;;;;;;344985;28;983;-64
2021/06/08 00:37:04;;;;;;;11.70;9.10;;;;;;;;;;343568;28;1364;-64
2021/06/08 00:37:16;;;;;;;10.57;8.85;;;;;;;;;;342596;28;1006;-64
2021/06/08 00:37:28;;;;;;;10.70;8.80;;;;;;;;;;342431;28;1132;-64
2021/06/08 00:37:40;;;;;;;10.80;8.77;;;;;;;;;;343468;28;1051;-64
2021/06/08 00:37:53;;;;;;;10.88;8.77;;;;;;;;;;343214;28;1343;-64
2021/06/08 00:38:05;;;;;;;11.50;8.93;;;;;;;;;;343674;28;1102;-65
2021/06/08 00:38:17;;;;;;;11.30;8.98;;;;;;;;;;343576;28;1135;-64
2021/06/08 00:38:29;;;;;;;11.75;9.35;;;;;;;;;;343651;28;1320;-64
2021/06/08 00:38:41;;;;;;;11.32;9.32;;;;;;;;;;342274;28;1002;-64
2021/06/08 00:38:54;;;;;;;12.48;9.18;;;;;;;;;;342180;28;1182;-69
2021/06/08 00:39:06;;;;;;;13.20;9.20;;;;;;;;;;342100;28;1107;-68
2021/06/08 00:39:18;;;;;;;11.32;9.00;;;;;;;;;;343611;28;1121;-64
2021/06/08 00:39:30;;;;;;;11.23;8.60;;;;;;;;;;343427;28;992;-64
2021/06/08 00:39:42;;;;;;;11.32;8.45;;;;;;;;;;343484;28;1066;-66
2021/06/08 00:39:55;;;;;;;10.85;8.45;;;;;;;;;;343456;28;1162;-64
2021/06/08 00:40:07;;;;;;;10.35;8.63;;;;;;;;;;343624;28;1233;-65
2021/06/08 00:40:19;;;;;;;11.15;9.00;;;;;;;;;;343267;28;1105;-64
2021/06/08 00:40:31;;;;;;;11.77;9.50;;;;;;;;;;343736;28;2135;-64
2021/06/08 00:40:44;;;;;;;11.93;9.45;;;;;;;;;;344107;28;1115;-64
2021/06/08 00:40:59;;;;;;;11.40;9.20;;;;;;;;;;344488;28;1946;-64
2021/06/08 00:41:12;;;;;;;10.85;9.10;;;;;;;;;;341328;28;63081;-67
2021/06/08 00:41:31;;;;;;;11.52;9.68;;;;;;;;;;342401;28;1117;-74
2021/06/08 00:41:44;;;;;;;13.38;9.73;;;;;;;;;;338862;29;63600;-65
2021/06/08 00:41:56;;;;;;;13.23;9.38;;;;;;;;;;340856;29;1043;-64
2021/06/08 00:42:08;;;;;;;12.57;9.23;;;;;;;;;;340871;29;1166;-64
2021/06/08 00:42:27;;;;;;;11.76;9.76;;;;;;;;;;341037;28;1033;-64
2021/06/08 00:42:39;;;;;;;11.77;9.63;;;;;;;;;;341020;28;62418;-64
2021/06/08 00:42:52;;;;;;;12.00;9.30;;;;;;;;;;342276;28;1280;-64
2021/06/08 00:43:04;;;;;;;12.25;9.55;;;;;;;;;;341816;28;1727;-64
2021/06/08 00:43:16;;;;;;;13.73;9.90;;;;;;;;;;342050;28;1173;-64
2021/06/08 00:43:28;;;;;;;13.45;9.70;;;;;;;;;;340862;29;1107;-66
2021/06/08 00:43:40;;;;;;;13.13;10.18;;;;;;;;;;343028;28;1067;-64
2021/06/08 00:43:52;;;;;;;14.13;10.02;;;;;;;;;;343507;28;1036;-63
2021/06/08 00:44:06;;;;;;;16.63;10.52;;;;;;;;;;343563;28;1020;-64
2021/06/08 00:44:18;;;;;;;14.52;10.57;;;;;;;;;;342131;28;1141;-64
2021/06/08 00:44:30;;;;;;;11.95;9.93;;;;;;;;;;342241;28;1095;-64
2021/06/08 00:44:42;;;;;;;10.50;8.85;;;;;;;;;;342409;28;1699;-64
2021/06/08 00:44:54;;;;;;;11.73;8.80;;;;;;;;;;343833;28;1761;-64
2021/06/08 00:45:07;;;;;;;11.30;8.93;;;;;;;;;;344762;28;1086;-63
2021/06/08 00:45:20;;;;;;;10.95;9.20;;;;;;;;;;343520;28;1397;-65
2021/06/08 00:45:32;;;;;;;11.23;9.18;;;;;;;;;;343548;28;1153;-66
2021/06/08 00:45:44;;;;;;;11.35;8.80;;;;;;;;;;342033;28;2005;-64
2021/06/08 00:45:56;;;;;;;11.40;8.95;;;;;;;;;;341015;28;1161;-66
2021/06/08 00:46:08;;;;;;;11.23;9.02;;;;;;;;;;342021;28;1166;-64
2021/06/08 00:46:20;;;;;;;10.50;8.68;;;;;;;;;;340655;28;1220;-64
2021/06/08 00:46:32;;;;;;;11.48;8.80;;;;;;;;;;342575;28;1085;-67
2021/06/08 00:46:46;;;;;;;13.02;9.07;;;;;;;;;;342195;28;1189;-63
2021/06/08 00:46:58;;;;;;;12.73;9.27;;;;;;;;;;341093;28;1201;-64
2021/06/08 00:47:10;;;;;;;12.02;9.20;;;;;;;;;;342275;28;1180;-64
2021/06/08 00:47:23;;;;;;;12.50;9.43;;;;;;;;;;342298;28;1107;-64
2021/06/08 00:47:35;;;;;;;13.40;9.07;;;;;;;;;;342625;28;1145;-63
2021/06/08 00:47:47;;;;;;;12.82;9.00;;;;;;;;;;342260;28;1148;-64
2021/06/08 00:48:00;;;;;;;12.48;9.15;;;;;;;;;;342406;28;1172;-64
2021/06/08 00:48:13;;;;;;;13.52;9.35;;;;;;;;;;342595;28;1177;-64
2021/06/08 00:48:25;;;;;;;13.25;9.13;;;;;;;;;;342014;28;16620;-64
2021/06/08 00:48:37;;;;;;;12.02;8.88;;;;;;;;;;343292;28;1208;-63
2021/06/08 00:48:49;;;;;;;13.07;9.30;;;;;;;;;;342382;28;1072;-63
2021/06/08 00:49:02;;;;;;;13.05;9.23;;;;;;;;;;342334;28;1111;-64
2021/06/08 00:49:15;;;;;;;11.45;9.27;;;;;;;;;;343851;28;1118;-65
2021/06/08 00:49:27;;;;;;;10.85;9.05;;;;;;;;;;344450;28;1097;-64
2021/06/08 00:49:39;;;;;;;12.50;9.82;;;;;;;;;;345057;28;1055;-65
2021/06/08 00:49:52;;;;;;;13.73;10.20;;;;;;;;;;343650;28;1214;-66
2021/06/08 00:50:04;;;;;;;13.48;10.82;;;;;;;;;;343721;28;1067;-64
2021/06/08 00:50:17;;;;;;;12.88;10.60;;;;;;;;;;343787;28;1162;-66
2021/06/08 00:50:29;;;;;;;14.05;10.00;;;;;;;;;;343679;28;984;-64
2021/06/08 00:50:41;;;;;;;13.05;9.15;;;;;;;;;;343677;28;1114;-64
2021/06/08 00:50:53;;;;;;;11.63;9.30;;;;;;;;;;343846;28;991;-64
2021/06/08 00:51:05;;;;;;;11.70;9.60;;;;;;;;;;343981;28;1063;-65
2021/06/08 00:51:17;;;;;;;11.80;9.63;;;;;;;;;;343116;28;1150;-64
2021/06/08 00:51:29;;;;;;;13.50;9.98;;;;;;;;;;341892;28;2000;-64
2021/06/08 00:51:42;;;;;;;13.73;10.13;;;;;;;;;;341306;28;1120;-64
2021/06/08 00:51:54;;;;;;;13.70;10.55;;;;;;;;;;343010;28;1023;-64
2021/06/08 00:52:06;;;;;;;13.77;10.88;;;;;;;;;;342286;28;1063;-64
2021/06/08 00:52:18;;;;;;;14.35;10.93;;;;;;;;;;342336;28;1091;-64
2021/06/08 00:52:31;;;;;;;15.05;10.48;;;;;;;;;;342802;28;1027;-63
2021/06/08 00:52:44;;;;;;;14.23;10.27;;;;;;;;;;343672;28;1047;-64
2021/06/08 00:52:56;;;;;;;13.00;9.80;;;;;;;;;;343775;28;1170;-64
2021/06/08 00:53:08;;;;;;;13.05;9.55;;;;;;;;;;342153;28;1271;-64
2021/06/08 00:53:20;;;;;;;11.50;9.20;;;;;;;;;;342450;28;1099;-64
2021/06/08 00:53:32;;;;;;;13.38;9.15;;;;;;;;;;342402;28;1054;-63
2021/06/08 00:53:44;;;;;;;13.25;8.98;;;;;;;;;;342498;28;1171;-64
2021/06/08 00:53:59;;;;;;;14.32;9.40;;;;;;;;;;342557;28;1385;-69
2021/06/08 00:54:11;;;;;;;13.10;9.32;;;;;;;;;;341408;28;16697;-64
2021/06/08 00:54:23;;;;;;;12.18;9.15;;;;;;;;;;342454;28;1067;-64
2021/06/08 00:54:35;;;;;;;12.07;9.38;;;;;;;;;;345372;28;1133;-64
2021/06/08 00:54:47;;;;;;;11.88;9.18;;;;;;;;;;347966;28;1094;-64
2021/06/08 00:55:00;;;;;;;11.70;8.98;;;;;;;;;;348019;28;1367;-64
2021/06/08 00:55:13;;;;;;;11.88;9.15;;;;;;;;;;347166;28;1202;-64
2021/06/08 00:55:25;;;;;;;12.35;9.27;;;;;;;;;;348215;28;1422;-64
2021/06/08 00:55:38;;;;;;;11.18;9.07;;;;;;;;;;349335;28;1749;-64
2021/06/08 00:55:51;;;;;;;10.57;9.15;;;;;;;;;;349552;28;1085;-64
2021/06/08 00:56:03;;;;;;;10.75;9.48;;;;;;;;;;350746;28;1061;-64
2021/06/08 00:56:15;;;;;;;12.45;9.60;;;;;;;;;;349959;28;1025;-64
2021/06/08 00:56:27;;;;;;;14.30;10.07;;;;;;;;;;349139;28;1028;-66
2021/06/08 00:56:43;;;;;;;14.75;10.30;;;;;;;;;;349030;28;1238;-64
2021/06/08 00:56:58;;;;;;;13.05;9.93;;;;;;;;;;347053;28;63818;-66
2021/06/08 00:57:10;;;;;;;12.32;9.30;;;;;;;;;;348535;28;16880;-66
2021/06/08 00:57:22;;;;;;;12.55;9.60;;;;;;;;;;349321;28;1918;-64
2021/06/08 00:57:34;;;;;;;12.40;9.75;;;;;;;;;;349306;28;1168;-65
2021/06/08 00:57:48;;;;;;;14.18;9.70;;;;;;;;;;349415;28;1275;-64
2021/06/08 00:58:01;;;;;;;13.73;9.70;;;;;;;;;;348395;28;16112;-64
2021/06/08 00:58:13;;;;;;;12.28;9.36;;;;;;;;;;347160;28;1823;-64
2021/06/08 00:58:25;;;;;;;11.75;9.48;;;;;;;;;;348114;28;1104;-64
2021/06/08 00:58:37;;;;;;;12.48;9.82;;;;;;;;;;347870;28;1106;-64
2021/06/08 00:58:49;;;;;;;12.45;9.55;;;;;;;;;;346805;28;1013;-67
2021/06/08 00:59:01;;;;;;;14.50;9.20;;;;;;;;;;346732;28;1110;-65
2021/06/08 00:59:14;;;;;;;13.18;9.07;;;;;;;;;;347729;28;1023;-64
2021/06/08 00:59:26;;;;;;;13.43;9.45;;;;;;;;;;348173;28;1184;-64
2021/06/08 00:59:38;;;;;;;13.00;9.57;;;;;;;;;;348016;28;1196;-64
2021/06/08 00:59:50;;;;;;;13.95;9.50;;;;;;;;;;348100;28;1377;-63
2021/06/08 01:00:04;;;;;;;12.57;9.45;;;;;;;;;;347957;28;1465;-64
2021/06/08 01:00:16;;;;;;;12.80;9.25;;;;;;;;;;347262;28;1132;-64
2021/06/08 01:00:29;;;;;;;12.45;9.15;;;;;;;;;;346817;28;1112;-63
2021/06/08 01:00:41;;;;;;;12.88;9.45;;;;;;;;;;346907;28;1094;-67
2021/06/08 01:00:53;;;;;;;12.07;9.25;;;;;;;;;;349316;28;1141;-64
2021/06/08 01:01:05;;;;;;;11.98;9.10;;;;;;;;;;349205;28;1278;-68
2021/06/08 01:01:17;;;;;;;15.38;9.45;;;;;;;;;;349347;28;1022;-66
2021/06/08 01:01:30;;;;;;;14.90;9.60;;;;;;;;;;349291;28;1096;-67
2021/06/08 01:01:42;;;;;;;13.00;9.10;;;;;;;;;;349826;28;1483;-64
2021/06/08 01:01:55;;;;;;;11.50;8.80;;;;;;;;;;350609;28;1037;-64
2021/06/08 01:02:07;;;;;;;11.98;8.60;;;;;;;;;;349926;28;1928;-64
2021/06/08 01:02:19;;;;;;;12.32;8.10;;;;;;;;;;350494;28;1112;-64
2021/06/08 01:02:32;;;;;;;12.55;8.45;;;;;;;;;;349380;28;1096;-67
2021/06/08 01:02:44;;;;;;;11.93;8.68;;;;;;;;;;350717;28;1926;-64
2021/06/08 01:02:57;;;;;;;11.98;8.77;;;;;;;;;;349642;28;1099;-67
2021/06/08 01:03:09;;;;;;;11.38;8.90;;;;;;;;;;348769;28;1180;-65
2021/06/08 01:03:21;;;;;;;12.60;8.93;;;;;;;;;;347855;28;1343;-65
2021/06/08 01:03:34;;;;;;;13.68;8.70;;;;;;;;;;349473;28;1115;-64
2021/06/08 01:03:46;;;;;;;14.13;8.90;;;;;;;;;;349315;28;1005;-66
2021/06/08 01:03:58;;;;;;;13.23;8.88;;;;;;;;;;348480;28;1033;-64
2021/06/08 01:04:10;;;;;;;12.68;9.07;;;;;;;;;;348266;28;1129;-64
2021/06/08 01:04:22;;;;;;;12.80;9.10;;;;;;;;;;346701;28;1105;-65
2021/06/08 01:04:34;;;;;;;12.23;9.15;;;;;;;;;;346704;28;1043;-69
2021/06/08 01:04:46;;;;;;;10.88;8.98;;;;;;;;;;346657;28;1921;-64
2021/06/08 01:05:00;;;;;;;11.82;9.05;;;;;;;;;;346630;28;1095;-64
2021/06/08 01:05:12;;;;;;;12.57;8.77;;;;;;;;;;346729;28;1055;-65
2021/06/08 01:05:25;;;;;;;11.82;8.85;;;;;;;;;;346850;28;1160;-63
2021/06/08 01:05:38;;;;;;;12.23;9.00;;;;;;;;;;346619;28;1083;-68
2021/06/08 01:05:50;;;;;;;13.63;8.70;;;;;;;;;;346776;28;1195;-68
2021/06/08 01:06:02;;;;;;;14.05;8.45;;;;;;;;;;348303;28;1784;-65
2021/06/08 01:06:14;;;;;;;12.82;8.85;;;;;;;;;;348287;28;1710;-63
2021/06/08 01:06:26;;;;;;;12.13;9.10;;;;;;;;;;347860;28;1089;-66
2021/06/08 01:06:39;;;;;;;13.77;9.40;;;;;;;;;;347816;28;1169;-65
2021/06/08 01:06:51;;;;;;;14.82;9.60;;;;;;;;;;347846;28;1207;-67
2021/06/08 01:07:03;;;;;;;13.52;9.38;;;;;;;;;;346755;28;1167;-64
2021/06/08 01:07:15;;;;;;;12.35;9.05;;;;;;;;;;347911;28;1081;-65
2021/06/08 01:07:28;;;;;;;10.18;8.55;;;;;;;;;;347801;28;1103;-64
2021/06/08 01:07:40;;;;;;;9.85;8.60;;;;;;;;;;347799;28;1169;-64
2021/06/08 01:07:52;;;;;;;10.35;8.73;;;;;;;;;;347878;28;1382;-65
2021/06/08 01:08:04;;;;;;;10.57;8.73;;;;;;;;;;348160;28;1961;-64
2021/06/08 01:08:16;;;;;;;11.73;8.95;;;;;;;;;;347925;28;1220;-65
2021/06/08 01:08:29;;;;;;;12.52;8.80;;;;;;;;;;348050;28;1317;-64
2021/06/08 01:08:41;;;;;;;11.40;8.32;;;;;;;;;;347780;28;1180;-64
2021/06/08 01:08:53;;;;;;;10.45;8.27;;;;;;;;;;347914;28;1094;-65
2021/06/08 01:09:06;;;;;;;10.13;8.15;;;;;;;;;;348622;28;1387;-64
2021/06/08 01:09:18;;;;;;;11.38;8.25;;;;;;;;;;347776;28;16927;-64
2021/06/08 01:09:31;;;;;;;12.52;8.40;;;;;;;;;;346948;28;1045;-63
2021/06/08 01:09:43;;;;;;;12.07;8.45;;;;;;;;;;346889;28;2074;-64
2021/06/08 01:09:58;;;;;;;10.80;8.27;;;;;;;;;;346662;28;1069;-64
2021/06/08 01:10:10;;;;;;;12.43;8.48;;;;;;;;;;345817;28;40147;-63
2021/06/08 01:10:23;;;;;;;12.38;8.63;;;;;;;;;;348258;28;1156;-64
2021/06/08 01:10:35;;;;;;;11.45;8.95;;;;;;;;;;348201;28;1089;-63
2021/06/08 01:10:47;;;;;;;13.73;8.85;;;;;;;;;;348035;28;1250;-64
2021/06/08 01:10:59;;;;;;;14.95;8.65;;;;;;;;;;348270;28;1093;-64
2021/06/08 01:11:11;;;;;;;13.70;8.50;;;;;;;;;;350564;28;1108;-64
2021/06/08 01:11:23;;;;;;;13.40;8.70;;;;;;;;;;350616;28;1171;-68
2021/06/08 01:11:36;;;;;;;12.77;8.50;;;;;;;;;;350620;28;1082;-63
2021/06/08 01:11:48;;;;;;;13.27;8.60;;;;;;;;;;350774;28;1557;-64
2021/06/08 01:12:00;;;;;;;13.50;8.88;;;;;;;;;;349333;28;1321;-64
2021/06/08 01:12:13;;;;;;;12.38;9.02;;;;;;;;;;348179;28;1910;-64
2021/06/08 01:12:26;;;;;;;12.60;9.02;;;;;;;;;;348228;28;1084;-66
2021/06/08 01:12:38;;;;;;;12.40;8.45;;;;;;;;;;348290;28;16711;-64
2021/06/08 01:12:50;;;;;;;12.52;8.30;;;;;;;;;;347941;28;1153;-68
2021/06/08 01:13:03;;;;;;;11.95;8.32;;;;;;;;;;347777;28;1179;-66
2021/06/08 01:13:15;;;;;;;11.35;8.35;;;;;;;;;;346683;28;1082;-65
2021/06/08 01:13:29;;;;;;;11.00;8.68;;;;;;;;;;347842;28;1145;-64
2021/06/08 01:13:41;;;;;;;11.27;8.73;;;;;;;;;;345977;28;16472;-64
2021/06/08 01:13:53;;;;;;;11.50;8.40;;;;;;;;;;346158;28;1105;-64
2021/06/08 01:14:05;;;;;;;12.05;8.60;;;;;;;;;;347766;28;1227;-63
2021/06/08 01:14:18;;;;;;;12.48;8.85;;;;;;;;;;349203;28;1258;-63
2021/06/08 01:14:30;;;;;;;11.63;8.77;;;;;;;;;;349120;28;1018;-64
2021/06/08 01:14:42;;;;;;;12.38;8.75;;;;;;;;;;349385;28;1212;-63
2021/06/08 01:14:54;;;;;;;12.38;8.73;;;;;;;;;;348127;28;2023;-63
2021/06/08 01:15:07;;;;;;;13.35;8.75;;;;;;;;;;348844;28;1082;-65
2021/06/08 01:15:21;;;;;;;12.52;8.48;;;;;;;;;;349048;28;1107;-63
2021/06/08 01:15:33;;;;;;;10.90;7.97;;;;;;;;;;344805;28;17746;-64